createdAt,value
2022-10-26T00:00:34.645Z,3.65
2022-10-26T00:03:38.351Z,4.10
2022-10-26T00:06:40.555Z,4.15
2022-10-26T00:09:43.092Z,4.18
2022-10-26T00:12:48.923Z,3.97
2022-10-26T00:15:51.581Z,3.30
2022-10-26T00:18:54.135Z,3.58
2022-10-26T00:21:56.589Z,3.35
2022-10-26T00:24:58.721Z,3.83
2022-10-26T00:28:01.169Z,3.10
2022-10-26T00:31:11.759Z,2.92
2022-10-26T00:34:14.231Z,3.20
2022-10-26T00:37:16.362Z,3.28
2022-10-26T00:40:18.815Z,2.90
2022-10-26T00:43:27.084Z,2.87
2022-10-26T00:46:37.745Z,3.25
2022-10-26T00:49:40.281Z,2.65
2022-10-26T00:52:42.984Z,2.75
2022-10-26T00:55:49.853Z,2.97
2022-10-26T00:58:52.861Z,2.92
2022-10-26T01:01:55.033Z,2.90
2022-10-26T01:04:58.103Z,3.03
2022-10-26T01:08:01.061Z,3.30
2022-10-26T01:11:03.650Z,3.03
2022-10-26T01:14:09.867Z,3.37
2022-10-26T01:17:22.754Z,3.30
2022-10-26T01:20:40.287Z,3.72
2022-10-26T01:24:04.408Z,3.12
2022-10-26T01:27:26.968Z,3.50
2022-10-26T01:30:40.160Z,3.17
2022-10-26T01:33:54.295Z,3.35
2022-10-26T01:37:02.670Z,3.37
2022-10-26T01:40:45.264Z,2.72
2022-10-26T01:43:59.019Z,3.53
2022-10-26T01:47:02.958Z,3.35
2022-10-26T01:50:06.929Z,3.30
2022-10-26T01:53:12.613Z,3.62
2022-10-26T01:56:22.054Z,3.53
2022-10-26T01:59:54.146Z,3.25
2022-10-26T02:03:19.694Z,3.35
2022-10-26T02:07:03.712Z,3.45
2022-10-26T02:10:46.832Z,3.17
2022-10-26T02:17:26.655Z,2.55
2022-10-26T02:20:34.273Z,2.80
2022-10-26T02:23:41.212Z,3.33
2022-10-26T02:26:48.136Z,2.70
2022-10-26T02:29:52.935Z,2.87
2022-10-26T02:32:57.578Z,2.53
2022-10-26T02:36:02.856Z,3.08
2022-10-26T02:39:07.862Z,3.40
2022-10-26T02:42:13.342Z,2.92
2022-10-26T02:45:24.023Z,3.20
2022-10-26T02:48:26.531Z,2.78
2022-10-26T02:51:49.710Z,3.53
2022-10-26T02:55:03.422Z,2.92
2022-10-26T02:58:12.266Z,2.58
2022-10-26T03:01:15.384Z,3.20
2022-10-26T03:04:17.625Z,2.75
2022-10-26T03:07:22.417Z,2.92
2022-10-26T03:10:25.126Z,3.20
2022-10-26T03:13:27.594Z,3.33
2022-10-26T03:16:29.698Z,3.50
2022-10-26T03:19:32.106Z,3.00
2022-10-26T03:22:34.578Z,3.40
2022-10-26T03:25:37.000Z,3.47
2022-10-26T03:28:39.120Z,3.40
2022-10-26T03:31:41.567Z,3.03
2022-10-26T03:34:43.716Z,3.70
2022-10-26T03:37:46.737Z,3.72
2022-10-26T03:40:49.063Z,3.10
2022-10-26T03:43:51.555Z,3.47
2022-10-26T03:46:53.655Z,3.30
2022-10-26T03:49:56.114Z,3.65
2022-10-26T03:52:58.272Z,3.03
2022-10-26T03:56:00.686Z,2.85
2022-10-26T03:59:02.856Z,2.97
2022-10-26T04:02:05.297Z,3.45
2022-10-26T04:05:08.551Z,3.55
2022-10-26T04:08:10.809Z,3.17
2022-10-26T04:11:13.240Z,3.17
2022-10-26T04:14:15.386Z,4.47
2022-10-26T04:17:17.873Z,3.78
2022-10-26T04:20:19.968Z,3.70
2022-10-26T04:23:22.503Z,4.25
2022-10-26T04:26:24.941Z,4.35
2022-10-26T04:29:27.423Z,4.32
2022-10-26T04:32:29.587Z,4.35
2022-10-26T04:35:32.710Z,4.18
2022-10-26T04:38:34.889Z,4.82
2022-10-26T04:41:37.586Z,4.80
2022-10-26T04:44:39.740Z,4.15
2022-10-26T04:47:43.146Z,4.68
2022-10-26T04:50:45.249Z,5.00
2022-10-26T04:53:47.651Z,5.18
2022-10-26T04:56:51.206Z,5.20
2022-10-26T04:59:53.590Z,5.70
2022-10-26T05:03:00.005Z,4.80
2022-10-26T05:06:02.347Z,4.60
2022-10-26T05:09:04.494Z,4.95
2022-10-26T05:12:06.938Z,5.62
2022-10-26T05:15:11.938Z,5.00
2022-10-26T05:18:14.359Z,4.20
2022-10-26T05:21:19.798Z,4.93
2022-10-26T05:24:22.230Z,6.22
2022-10-26T05:27:24.321Z,5.70
2022-10-26T05:30:27.946Z,6.12
2022-10-26T05:33:30.231Z,7.43
2022-10-26T05:36:32.695Z,7.18
2022-10-26T05:39:34.887Z,6.37
2022-10-26T05:42:37.343Z,6.93
2022-10-26T05:45:39.906Z,6.40
2022-10-26T05:48:42.406Z,6.70
2022-10-26T05:51:44.569Z,6.35
2022-10-26T05:54:47.020Z,6.75
2022-10-26T05:57:49.670Z,6.70
2022-10-26T06:01:08.111Z,7.28
2022-10-26T06:04:32.209Z,7.30
2022-10-26T06:07:37.582Z,7.25
2022-10-26T06:10:54.517Z,7.93
2022-10-26T06:14:01.466Z,8.10
2022-10-26T06:17:21.142Z,8.48
2022-10-26T06:21:01.920Z,8.57
2022-10-26T06:24:22.246Z,9.68
2022-10-26T06:27:29.414Z,13.43
2022-10-26T06:30:31.987Z,12.80
2022-10-26T06:33:34.662Z,13.10
2022-10-26T06:36:40.492Z,12.95
2022-10-26T06:39:48.870Z,12.52
2022-10-26T06:42:54.428Z,12.02
2022-10-26T06:46:05.174Z,13.32
2022-10-26T06:49:51.423Z,14.57
2022-10-26T06:53:47.745Z,13.80
2022-10-26T06:56:52.406Z,14.73
2022-10-26T06:59:59.932Z,14.13
2022-10-26T07:03:02.403Z,12.30
2022-10-26T07:06:05.788Z,11.12
2022-10-26T07:09:08.374Z,12.00
2022-10-26T07:12:10.506Z,11.98
2022-10-26T07:15:12.995Z,12.32
2022-10-26T07:18:15.160Z,11.05
2022-10-26T07:21:17.505Z,10.60
2022-10-26T07:24:19.612Z,9.55
2022-10-26T07:27:23.981Z,10.20
2022-10-26T07:30:27.542Z,11.15
2022-10-26T07:33:29.965Z,11.15
2022-10-26T07:36:32.212Z,11.48
2022-10-26T07:39:41.306Z,11.00
2022-10-26T07:47:05.639Z,10.68
2022-10-26T07:50:13.218Z,10.10
2022-10-26T07:53:16.391Z,9.52
2022-10-26T07:56:19.160Z,10.52
2022-10-26T07:59:21.926Z,9.98
2022-10-26T08:02:24.724Z,10.63
2022-10-26T08:05:28.038Z,9.90
2022-10-26T08:08:32.447Z,9.98
2022-10-26T08:11:37.616Z,11.70
2022-10-26T08:14:39.922Z,12.82
2022-10-26T08:17:42.653Z,13.43
2022-10-26T08:20:44.764Z,12.48
2022-10-26T08:23:47.144Z,13.20
2022-10-26T08:26:50.379Z,14.38
2022-10-26T08:29:53.043Z,13.82
2022-10-26T08:33:00.391Z,13.48
2022-10-26T08:36:05.300Z,13.27
2022-10-26T08:39:07.512Z,12.50
2022-10-26T08:42:39.826Z,12.43
2022-10-26T08:45:50.531Z,10.65
2022-10-26T08:48:56.263Z,11.77
2022-10-26T08:52:01.494Z,10.98
2022-10-26T08:55:14.322Z,11.15
2022-10-26T08:58:23.893Z,10.90
2022-10-26T09:01:31.322Z,11.00
2022-10-26T09:04:35.720Z,9.43
2022-10-26T09:08:04.514Z,9.40
2022-10-26T09:11:59.985Z,9.32
2022-10-26T09:15:08.124Z,7.45
2022-10-26T09:18:21.903Z,7.77
2022-10-26T09:21:50.074Z,5.28
2022-10-26T09:25:04.047Z,4.75
2022-10-26T09:28:16.928Z,4.75
2022-10-26T09:31:23.252Z,4.95
2022-10-26T09:34:44.105Z,4.47
2022-10-26T09:37:53.107Z,4.70
2022-10-26T09:41:12.146Z,4.60
2022-10-26T09:44:26.562Z,5.20
2022-10-26T09:47:52.878Z,5.22
2022-10-26T09:51:05.105Z,5.18
2022-10-26T09:54:16.949Z,5.03
2022-10-26T10:39:35.900Z,7.78
2022-10-26T10:42:41.254Z,8.18
2022-10-26T10:45:49.026Z,7.90
2022-10-26T10:48:55.927Z,7.87
2022-10-26T10:51:58.970Z,8.35
2022-10-26T10:55:13.754Z,9.18
2022-10-26T10:58:30.631Z,8.82
2022-10-26T11:01:44.311Z,8.38
2022-10-26T11:05:10.018Z,8.90
2022-10-26T11:08:21.463Z,8.57
2022-10-26T11:11:33.483Z,11.77
2022-10-26T11:14:48.977Z,9.10
2022-10-26T11:18:07.582Z,10.23
2022-10-26T11:21:31.183Z,10.27
2022-10-26T11:24:49.887Z,10.75
2022-10-26T11:31:15.328Z,10.18
2022-10-26T11:34:26.230Z,10.93
2022-10-26T11:40:53.147Z,12.23
2022-10-26T11:44:05.953Z,12.95
2022-10-26T11:47:40.805Z,13.15
2022-10-26T11:50:52.328Z,14.23
2022-10-26T11:53:57.967Z,15.25
2022-10-26T11:57:01.049Z,15.30
2022-10-26T12:00:14.227Z,15.82
2022-10-26T12:03:21.839Z,16.45
2022-10-26T12:06:31.951Z,17.05
2022-10-26T12:09:38.873Z,12.50
2022-10-26T12:12:48.564Z,14.18
2022-10-26T12:16:22.444Z,14.82
2022-10-26T12:19:32.056Z,15.10
2022-10-26T12:22:40.018Z,15.65
2022-10-26T12:25:42.173Z,16.10
2022-10-26T12:28:44.732Z,17.70
2022-10-26T12:31:46.829Z,18.05
2022-10-26T12:34:49.383Z,17.48
2022-10-26T12:37:51.855Z,17.40
2022-10-26T12:41:03.972Z,17.20
2022-10-26T12:44:31.663Z,18.30
2022-10-26T12:47:34.036Z,15.88
2022-10-26T12:50:36.584Z,15.98
2022-10-26T12:53:41.045Z,15.52
2022-10-26T12:57:15.156Z,13.50
2022-10-26T13:00:23.353Z,11.30
2022-10-26T13:03:46.341Z,12.15
2022-10-26T13:07:14.154Z,9.70
2022-10-26T13:10:21.580Z,10.48
2022-10-26T13:13:24.309Z,10.20
2022-10-26T13:16:28.446Z,9.57
2022-10-26T13:19:47.001Z,9.05
2022-10-26T13:22:49.770Z,9.25
2022-10-26T13:26:06.707Z,7.75
2022-10-26T13:29:11.170Z,8.05
2022-10-26T13:32:14.046Z,7.40
2022-10-26T13:35:17.126Z,7.05
2022-10-26T13:38:23.679Z,6.90
2022-10-26T13:41:42.600Z,6.80
2022-10-26T13:44:52.570Z,7.10
2022-10-26T13:48:16.966Z,8.23
2022-10-26T13:51:24.004Z,12.10
2022-10-26T13:54:40.019Z,16.55
2022-10-26T14:01:10.428Z,16.62
2022-10-26T14:04:18.042Z,16.45
2022-10-26T14:07:25.581Z,16.50
2022-10-26T14:10:32.287Z,17.45
2022-10-26T14:13:38.033Z,16.08
2022-10-26T14:16:46.602Z,16.12
2022-10-26T14:19:49.749Z,17.65
2022-10-26T14:22:52.227Z,17.58
2022-10-26T14:25:58.950Z,17.10
2022-10-26T14:29:02.126Z,15.73
2022-10-26T14:32:20.716Z,17.10
2022-10-26T14:35:27.943Z,15.80
2022-10-26T14:38:37.176Z,14.68
2022-10-26T14:41:42.768Z,14.98
2022-10-26T14:44:47.115Z,14.35
2022-10-26T14:47:52.330Z,26.75
2022-10-26T14:51:09.185Z,14.93
2022-10-26T14:54:24.187Z,17.98
2022-10-26T14:57:40.695Z,14.18
2022-10-26T15:00:45.028Z,14.15
2022-10-26T15:03:58.649Z,14.13
2022-10-26T15:07:18.854Z,14.60
2022-10-26T15:10:36.809Z,15.00
2022-10-26T15:13:43.413Z,14.73
2022-10-26T15:16:54.351Z,14.38
2022-10-26T15:19:57.872Z,12.75
2022-10-26T15:23:02.774Z,13.27
2022-10-26T15:26:05.489Z,13.32
2022-10-26T15:29:56.749Z,13.75
2022-10-26T15:33:18.795Z,12.55
2022-10-26T15:36:26.419Z,11.32
2022-10-26T15:39:29.532Z,11.50
2022-10-26T15:42:31.888Z,12.20
2022-10-26T15:45:37.773Z,11.25
2022-10-26T15:48:40.543Z,11.40
2022-10-26T15:51:45.362Z,11.50
2022-10-26T15:54:48.397Z,12.05
2022-10-26T15:57:51.464Z,12.50
2022-10-26T16:00:53.902Z,15.20
2022-10-26T16:03:56.672Z,14.38
2022-10-26T16:07:01.445Z,14.07
2022-10-26T16:10:04.148Z,14.70
2022-10-26T16:13:07.973Z,13.15
2022-10-26T16:16:15.578Z,11.25
2022-10-26T16:19:30.512Z,11.35
2022-10-26T16:22:36.197Z,12.18
2022-10-26T16:25:46.217Z,11.50
2022-10-26T16:28:49.518Z,10.77
2022-10-26T16:31:51.692Z,11.73
2022-10-26T16:34:54.287Z,11.40
2022-10-26T16:37:56.521Z,11.25
2022-10-26T16:41:04.096Z,11.25
2022-10-26T16:44:07.280Z,11.40
2022-10-26T16:47:09.827Z,13.38
2022-10-26T16:50:13.409Z,13.23
2022-10-26T16:53:16.441Z,11.73
2022-10-26T16:56:23.771Z,11.70
2022-10-26T16:59:26.308Z,13.10
2022-10-26T17:02:28.560Z,14.07
2022-10-26T17:05:31.164Z,13.77
2022-10-26T17:08:35.795Z,15.73
2022-10-26T17:11:38.451Z,15.38
2022-10-26T17:14:40.705Z,16.62
2022-10-26T17:17:43.263Z,15.35
2022-10-26T17:20:50.625Z,16.35
2022-10-26T17:23:53.143Z,16.70
2022-10-26T17:26:55.461Z,16.25
2022-10-26T17:29:57.979Z,13.95
2022-10-26T17:33:00.106Z,14.63
2022-10-26T17:36:03.916Z,13.43
2022-10-26T17:39:06.177Z,13.25
2022-10-26T17:42:08.714Z,13.38
2022-10-26T17:45:11.553Z,13.93
2022-10-26T17:48:14.077Z,13.77
2022-10-26T17:51:18.450Z,12.15
2022-10-26T17:54:21.156Z,12.02
2022-10-26T17:57:23.301Z,12.23
2022-10-26T18:00:25.754Z,11.70
2022-10-26T18:03:28.565Z,13.25
2022-10-26T18:06:30.778Z,11.20
2022-10-26T18:09:33.278Z,12.85
2022-10-26T18:12:35.453Z,11.85
2022-10-26T18:15:37.909Z,13.20
2022-10-26T18:18:42.635Z,13.02
2022-10-26T18:21:45.115Z,13.65
2022-10-26T18:24:47.307Z,12.30
2022-10-26T18:27:50.109Z,13.13
2022-10-26T18:30:52.344Z,12.37
2022-10-26T18:33:59.880Z,12.63
2022-10-26T18:37:02.014Z,12.50
2022-10-26T18:40:04.961Z,13.07
2022-10-26T18:43:07.096Z,13.93
2022-10-26T18:46:12.657Z,14.00
2022-10-26T18:49:19.325Z,14.43
2022-10-26T18:52:27.507Z,14.48
2022-10-26T18:55:29.722Z,12.80
2022-10-26T18:58:37.728Z,12.63
2022-10-26T19:01:42.056Z,11.50
2022-10-26T19:04:44.871Z,12.82
2022-10-26T19:07:46.999Z,12.70
2022-10-26T19:10:49.700Z,12.60
2022-10-26T19:13:55.084Z,12.95
2022-10-26T19:16:57.572Z,12.32
2022-10-26T19:20:00.573Z,12.90
2022-10-26T19:23:03.040Z,13.50
2022-10-26T19:26:06.372Z,13.35
2022-10-26T19:29:13.841Z,12.00
2022-10-26T19:32:15.963Z,11.90
2022-10-26T19:35:18.525Z,12.85
2022-10-26T19:38:21.481Z,12.25
2022-10-26T19:41:26.688Z,13.20
2022-10-26T19:44:28.932Z,13.68
2022-10-26T19:47:31.405Z,12.48
2022-10-26T19:50:33.644Z,12.52
2022-10-26T19:53:36.193Z,11.65
2022-10-26T19:56:38.596Z,12.65
2022-10-26T19:59:41.071Z,12.48
2022-10-26T20:02:43.201Z,12.68
2022-10-26T20:05:45.688Z,13.35
2022-10-26T20:08:48.992Z,12.32
2022-10-26T20:11:51.486Z,11.98
2022-10-26T20:14:53.651Z,11.43
2022-10-26T20:17:56.167Z,11.90
2022-10-26T20:20:58.483Z,11.63
2022-10-26T20:24:00.994Z,11.80
2022-10-26T20:27:03.232Z,12.37
2022-10-26T20:30:06.157Z,11.30
2022-10-26T20:33:09.617Z,11.00
2022-10-26T20:36:12.132Z,11.12
2022-10-26T20:39:14.712Z,11.32
2022-10-26T20:42:27.968Z,11.00
2022-10-26T20:45:33.917Z,10.10
2022-10-26T20:48:38.581Z,11.25
2022-10-26T20:52:08.705Z,10.50
2022-10-26T20:58:19.615Z,11.23
2022-10-26T21:01:28.232Z,10.70
2022-10-26T21:04:30.556Z,11.18
2022-10-26T21:07:33.068Z,11.02
2022-10-26T21:10:35.209Z,12.60
2022-10-26T21:13:37.693Z,10.88
2022-10-26T21:16:39.830Z,11.10
2022-10-26T21:19:42.356Z,10.88
2022-10-26T21:22:44.499Z,10.27
2022-10-26T21:25:46.907Z,9.07
2022-10-26T21:28:49.134Z,10.70
2022-10-26T21:31:51.621Z,10.27
2022-10-26T21:34:53.754Z,10.75
2022-10-26T21:37:56.625Z,10.23
2022-10-26T21:41:19.568Z,10.60
2022-10-26T21:44:38.824Z,10.40
2022-10-26T21:47:42.459Z,9.68
2022-10-26T21:50:45.023Z,10.77
2022-10-26T21:53:48.091Z,9.90
2022-10-26T21:56:50.624Z,10.65
2022-10-26T21:59:52.834Z,10.30
2022-10-26T22:02:55.328Z,9.90
2022-10-26T22:05:57.859Z,9.88
2022-10-26T22:09:00.045Z,9.90
2022-10-26T22:12:03.983Z,9.65
2022-10-26T22:15:06.657Z,9.38
2022-10-26T22:18:09.162Z,10.05
2022-10-26T22:21:13.206Z,10.30
2022-10-26T22:24:15.834Z,9.90
2022-10-26T22:27:18.008Z,9.70
2022-10-26T22:30:20.909Z,9.80
2022-10-26T22:33:23.081Z,9.48
2022-10-26T22:36:26.423Z,9.43
2022-10-26T22:39:28.628Z,10.35
2022-10-26T22:42:31.105Z,8.95
2022-10-26T22:45:33.267Z,9.45
2022-10-26T22:48:36.883Z,10.23
2022-10-26T22:51:39.060Z,10.15
2022-10-26T22:54:41.563Z,10.85
2022-10-26T22:57:43.793Z,9.32
2022-10-26T23:00:46.832Z,9.85
2022-10-26T23:03:49.064Z,10.40
2022-10-26T23:06:51.597Z,10.68
2022-10-26T23:09:53.795Z,10.77
2022-10-26T23:12:56.320Z,10.27
2022-10-26T23:16:09.242Z,10.35
2022-10-26T23:19:11.736Z,10.63
2022-10-26T23:22:13.905Z,11.02
2022-10-26T23:25:16.405Z,10.95
2022-10-26T23:28:19.059Z,12.02
2022-10-26T23:31:26.621Z,11.25
2022-10-26T23:34:28.804Z,10.32
2022-10-26T23:37:31.351Z,10.70
2022-10-26T23:40:33.682Z,11.00
2022-10-26T23:43:36.245Z,10.60
2022-10-26T23:46:38.367Z,10.85
2022-10-26T23:49:40.905Z,11.27
2022-10-26T23:52:48.446Z,10.30
2022-10-26T23:55:51.231Z,10.30
2022-10-26T23:58:53.404Z,11.55
